XCL weather

Cluff Lake Airport
Cluff Lake, Saskatchewan, Canada

Public forecast

Using degrees Celsius for public forecast. Weather courtesy of forecast.io.

Closest aviation weather report (METAR) to Cluff Lake Airport

Closest report is Fort Chipewyan Airport, 55.0 nm (101.8 km) WNW. Retrieved 2020/05/30 12:00 UTC (58 minutes ago):

CYPY 301200Z AUTO 11003KT 9SM CLR 06/01 A3018 RMK SLP230

Closest aviation forecast (TAF) to Cluff Lake Airport

Closest forecast is Fort Chipewyan Airport, 55.0 nm (101.8 km) WNW. Retrieved 2020/05/30 12:42 UTC (16 minutes ago):

TAF CYPY 301138Z 3012/3024 VRB03KT P6SM SKC BECMG 3015/3017 08010KT RMK FCST BASED ON AUTO OBS NXT FCST BY 301800Z